sensor_id;sensor_type;location;lat;lon;timestamp;P1;durP1;ratioP1;P2;durP2;ratioP2
56363;SDS011;42261;52.094;4.326;2024-03-25T00:01:56;20.88;;;16.17;;
56363;SDS011;42261;52.094;4.326;2024-03-25T00:04:40;18.30;;;16.48;;
56363;SDS011;42261;52.094;4.326;2024-03-25T00:07:24;18.30;;;16.83;;
56363;SDS011;42261;52.094;4.326;2024-03-25T00:10:08;18.98;;;16.85;;
56363;SDS011;42261;52.094;4.326;2024-03-25T00:12:52;18.02;;;16.52;;
56363;SDS011;42261;52.094;4.326;2024-03-25T00:15:38;23.73;;;17.55;;
56363;SDS011;42261;52.094;4.326;2024-03-25T00:18:23;17.70;;;16.13;;
56363;SDS011;42261;52.094;4.326;2024-03-25T00:21:07;18.73;;;17.13;;
56363;SDS011;42261;52.094;4.326;2024-03-25T00:23:51;18.05;;;16.17;;
56363;SDS011;42261;52.094;4.326;2024-03-25T00:26:36;17.42;;;15.93;;
56363;SDS011;42261;52.094;4.326;2024-03-25T00:29:20;17.35;;;16.02;;
56363;SDS011;42261;52.094;4.326;2024-03-25T00:32:05;17.13;;;15.93;;
56363;SDS011;42261;52.094;4.326;2024-03-25T00:34:50;18.08;;;16.70;;
56363;SDS011;42261;52.094;4.326;2024-03-25T00:37:34;17.80;;;16.20;;
56363;SDS011;42261;52.094;4.326;2024-03-25T00:40:18;16.67;;;15.32;;
56363;SDS011;42261;52.094;4.326;2024-03-25T00:43:01;17.98;;;16.17;;
56363;SDS011;42261;52.094;4.326;2024-03-25T00:45:46;17.08;;;15.80;;
56363;SDS011;42261;52.094;4.326;2024-03-25T00:48:31;17.42;;;15.90;;
56363;SDS011;42261;52.094;4.326;2024-03-25T00:51:16;16.65;;;15.57;;
56363;SDS011;42261;52.094;4.326;2024-03-25T00:54:00;17.67;;;16.17;;
56363;SDS011;42261;52.094;4.326;2024-03-25T00:56:45;17.48;;;15.88;;
56363;SDS011;42261;52.094;4.326;2024-03-25T00:59:30;17.60;;;16.08;;
56363;SDS011;42261;52.094;4.326;2024-03-25T01:02:14;16.33;;;15.05;;
56363;SDS011;42261;52.094;4.326;2024-03-25T01:04:58;17.55;;;16.35;;
56363;SDS011;42261;52.094;4.326;2024-03-25T01:07:43;18.35;;;15.30;;
56363;SDS011;42261;52.094;4.326;2024-03-25T01:10:28;17.77;;;15.93;;
56363;SDS011;42261;52.094;4.326;2024-03-25T01:13:12;16.30;;;15.20;;
56363;SDS011;42261;52.094;4.326;2024-03-25T01:15:55;15.75;;;14.55;;
56363;SDS011;42261;52.094;4.326;2024-03-25T01:18:39;18.17;;;15.45;;
56363;SDS011;42261;52.094;4.326;2024-03-25T01:21:23;16.80;;;15.30;;
56363;SDS011;42261;52.094;4.326;2024-03-25T01:24:08;17.65;;;15.82;;
56363;SDS011;42261;52.094;4.326;2024-03-25T01:26:52;17.15;;;15.43;;
56363;SDS011;42261;52.094;4.326;2024-03-25T01:29:36;18.38;;;16.50;;
56363;SDS011;42261;52.094;4.326;2024-03-25T01:32:20;17.02;;;15.63;;
56363;SDS011;42261;52.094;4.326;2024-03-25T01:35:04;16.80;;;15.35;;
56363;SDS011;42261;52.094;4.326;2024-03-25T01:37:49;16.88;;;15.57;;
56363;SDS011;42261;52.094;4.326;2024-03-25T01:40:33;16.38;;;15.23;;
56363;SDS011;42261;52.094;4.326;2024-03-25T01:43:18;15.98;;;14.98;;
56363;SDS011;42261;52.094;4.326;2024-03-25T01:46:01;20.48;;;15.43;;
56363;SDS011;42261;52.094;4.326;2024-03-25T01:48:45;22.38;;;15.85;;
56363;SDS011;42261;52.094;4.326;2024-03-25T01:51:30;16.33;;;15.25;;
56363;SDS011;42261;52.094;4.326;2024-03-25T01:54:14;15.75;;;14.95;;
56363;SDS011;42261;52.094;4.326;2024-03-25T01:57:00;16.23;;;14.80;;
56363;SDS011;42261;52.094;4.326;2024-03-25T01:59:45;15.90;;;14.60;;
56363;SDS011;42261;52.094;4.326;2024-03-25T02:02:30;16.10;;;14.85;;
56363;SDS011;42261;52.094;4.326;2024-03-25T02:05:14;17.58;;;16.08;;
56363;SDS011;42261;52.094;4.326;2024-03-25T02:07:59;16.77;;;15.40;;
56363;SDS011;42261;52.094;4.326;2024-03-25T02:10:43;17.58;;;16.63;;
56363;SDS011;42261;52.094;4.326;2024-03-25T02:13:28;16.20;;;15.00;;
56363;SDS011;42261;52.094;4.326;2024-03-25T02:16:12;18.40;;;14.88;;
56363;SDS011;42261;52.094;4.326;2024-03-25T02:18:56;16.05;;;15.00;;
56363;SDS011;42261;52.094;4.326;2024-03-25T02:21:40;15.55;;;14.20;;
56363;SDS011;42261;52.094;4.326;2024-03-25T02:24:24;15.50;;;14.45;;
56363;SDS011;42261;52.094;4.326;2024-03-25T02:27:09;18.58;;;15.05;;
56363;SDS011;42261;52.094;4.326;2024-03-25T02:30:08;16.15;;;15.32;;
56363;SDS011;42261;52.094;4.326;2024-03-25T02:32:53;16.52;;;15.25;;
56363;SDS011;42261;52.094;4.326;2024-03-25T02:35:37;16.30;;;14.90;;
56363;SDS011;42261;52.094;4.326;2024-03-25T02:38:22;16.45;;;15.23;;
56363;SDS011;42261;52.094;4.326;2024-03-25T02:41:07;17.05;;;15.82;;
56363;SDS011;42261;52.094;4.326;2024-03-25T02:43:52;22.50;;;17.00;;
56363;SDS011;42261;52.094;4.326;2024-03-25T02:46:39;16.98;;;15.38;;
56363;SDS011;42261;52.094;4.326;2024-03-25T02:49:23;15.88;;;14.77;;
56363;SDS011;42261;52.094;4.326;2024-03-25T02:52:07;16.20;;;14.95;;
56363;SDS011;42261;52.094;4.326;2024-03-25T02:54:51;16.02;;;15.10;;
56363;SDS011;42261;52.094;4.326;2024-03-25T02:57:35;18.90;;;15.98;;
56363;SDS011;42261;52.094;4.326;2024-03-25T03:00:19;16.67;;;15.10;;
56363;SDS011;42261;52.094;4.326;2024-03-25T03:03:03;15.95;;;14.65;;
56363;SDS011;42261;52.094;4.326;2024-03-25T03:05:47;21.77;;;14.93;;
56363;SDS011;42261;52.094;4.326;2024-03-25T03:08:31;16.15;;;14.63;;
56363;SDS011;42261;52.094;4.326;2024-03-25T03:11:16;15.95;;;14.80;;
56363;SDS011;42261;52.094;4.326;2024-03-25T03:14:00;15.50;;;14.57;;
56363;SDS011;42261;52.094;4.326;2024-03-25T03:16:44;18.42;;;16.90;;
56363;SDS011;42261;52.094;4.326;2024-03-25T03:19:28;16.58;;;15.60;;
56363;SDS011;42261;52.094;4.326;2024-03-25T03:22:13;17.27;;;16.08;;
56363;SDS011;42261;52.094;4.326;2024-03-25T03:24:57;18.88;;;16.92;;
56363;SDS011;42261;52.094;4.326;2024-03-25T03:27:42;16.95;;;15.73;;
56363;SDS011;42261;52.094;4.326;2024-03-25T03:30:26;17.40;;;15.93;;
56363;SDS011;42261;52.094;4.326;2024-03-25T03:33:11;16.60;;;15.43;;
56363;SDS011;42261;52.094;4.326;2024-03-25T03:35:55;16.65;;;15.35;;
56363;SDS011;42261;52.094;4.326;2024-03-25T03:38:41;16.42;;;14.73;;
56363;SDS011;42261;52.094;4.326;2024-03-25T03:41:25;17.33;;;15.65;;
56363;SDS011;42261;52.094;4.326;2024-03-25T03:44:09;16.15;;;15.15;;
56363;SDS011;42261;52.094;4.326;2024-03-25T03:46:53;17.35;;;15.95;;
56363;SDS011;42261;52.094;4.326;2024-03-25T03:49:37;16.50;;;15.10;;
56363;SDS011;42261;52.094;4.326;2024-03-25T03:52:21;20.85;;;15.25;;
56363;SDS011;42261;52.094;4.326;2024-03-25T03:55:05;17.13;;;16.02;;
56363;SDS011;42261;52.094;4.326;2024-03-25T03:57:49;17.02;;;14.85;;
56363;SDS011;42261;52.094;4.326;2024-03-25T04:00:34;16.85;;;15.85;;
56363;SDS011;42261;52.094;4.326;2024-03-25T04:03:19;17.63;;;16.08;;
56363;SDS011;42261;52.094;4.326;2024-03-25T04:06:07;17.30;;;15.77;;
56363;SDS011;42261;52.094;4.326;2024-03-25T04:08:51;17.70;;;16.13;;
56363;SDS011;42261;52.094;4.326;2024-03-25T04:11:37;18.00;;;15.80;;
56363;SDS011;42261;52.094;4.326;2024-03-25T04:14:21;17.02;;;15.82;;
56363;SDS011;42261;52.094;4.326;2024-03-25T04:17:05;17.75;;;16.17;;
56363;SDS011;42261;52.094;4.326;2024-03-25T04:19:50;17.38;;;16.17;;
56363;SDS011;42261;52.094;4.326;2024-03-25T04:22:34;18.23;;;16.35;;
56363;SDS011;42261;52.094;4.326;2024-03-25T04:25:18;20.17;;;18.05;;
56363;SDS011;42261;52.094;4.326;2024-03-25T04:28:02;17.98;;;16.75;;
56363;SDS011;42261;52.094;4.326;2024-03-25T04:30:52;18.85;;;17.33;;
56363;SDS011;42261;52.094;4.326;2024-03-25T04:33:37;17.90;;;16.25;;
56363;SDS011;42261;52.094;4.326;2024-03-25T04:36:21;18.73;;;17.30;;
56363;SDS011;42261;52.094;4.326;2024-03-25T04:39:05;18.27;;;16.90;;
56363;SDS011;42261;52.094;4.326;2024-03-25T04:41:52;19.67;;;17.85;;
56363;SDS011;42261;52.094;4.326;2024-03-25T04:44:36;17.65;;;16.02;;
56363;SDS011;42261;52.094;4.326;2024-03-25T04:47:20;18.67;;;16.95;;
56363;SDS011;42261;52.094;4.326;2024-03-25T04:50:05;22.75;;;16.88;;
56363;SDS011;42261;52.094;4.326;2024-03-25T04:52:49;17.80;;;16.65;;
56363;SDS011;42261;52.094;4.326;2024-03-25T04:55:33;16.52;;;15.45;;
56363;SDS011;42261;52.094;4.326;2024-03-25T04:58:17;17.95;;;16.58;;
56363;SDS011;42261;52.094;4.326;2024-03-25T05:01:03;17.27;;;16.08;;
56363;SDS011;42261;52.094;4.326;2024-03-25T05:03:47;17.90;;;16.90;;
56363;SDS011;42261;52.094;4.326;2024-03-25T05:06:31;18.30;;;16.88;;
56363;SDS011;42261;52.094;4.326;2024-03-25T05:09:15;17.23;;;15.77;;
56363;SDS011;42261;52.094;4.326;2024-03-25T05:12:00;19.13;;;17.13;;
56363;SDS011;42261;52.094;4.326;2024-03-25T05:14:44;16.98;;;15.63;;
56363;SDS011;42261;52.094;4.326;2024-03-25T05:17:28;17.55;;;16.35;;
56363;SDS011;42261;52.094;4.326;2024-03-25T05:20:12;16.33;;;15.30;;
56363;SDS011;42261;52.094;4.326;2024-03-25T05:22:56;18.38;;;16.10;;
56363;SDS011;42261;52.094;4.326;2024-03-25T05:25:40;16.10;;;15.18;;
56363;SDS011;42261;52.094;4.326;2024-03-25T05:28:24;18.45;;;16.08;;
56363;SDS011;42261;52.094;4.326;2024-03-25T05:31:08;16.50;;;15.68;;
56363;SDS011;42261;52.094;4.326;2024-03-25T05:33:53;17.42;;;16.17;;
56363;SDS011;42261;52.094;4.326;2024-03-25T05:36:37;17.15;;;16.05;;
56363;SDS011;42261;52.094;4.326;2024-03-25T05:39:22;17.48;;;16.42;;
56363;SDS011;42261;52.094;4.326;2024-03-25T05:42:07;18.17;;;16.60;;
56363;SDS011;42261;52.094;4.326;2024-03-25T05:44:51;17.65;;;16.25;;
56363;SDS011;42261;52.094;4.326;2024-03-25T05:47:36;17.73;;;16.50;;
56363;SDS011;42261;52.094;4.326;2024-03-25T05:50:22;18.45;;;16.45;;
56363;SDS011;42261;52.094;4.326;2024-03-25T05:53:07;18.73;;;17.27;;
56363;SDS011;42261;52.094;4.326;2024-03-25T05:55:52;18.67;;;16.83;;
56363;SDS011;42261;52.094;4.326;2024-03-25T05:58:37;17.95;;;16.48;;
56363;SDS011;42261;52.094;4.326;2024-03-25T06:01:22;17.50;;;16.17;;
56363;SDS011;42261;52.094;4.326;2024-03-25T06:04:07;18.08;;;16.65;;
56363;SDS011;42261;52.094;4.326;2024-03-25T06:06:51;22.33;;;17.33;;
56363;SDS011;42261;52.094;4.326;2024-03-25T06:09:35;17.88;;;16.50;;
56363;SDS011;42261;52.094;4.326;2024-03-25T06:12:19;18.20;;;16.55;;
56363;SDS011;42261;52.094;4.326;2024-03-25T06:15:03;18.00;;;16.65;;
56363;SDS011;42261;52.094;4.326;2024-03-25T06:17:47;19.45;;;17.88;;
56363;SDS011;42261;52.094;4.326;2024-03-25T06:20:31;18.23;;;16.60;;
56363;SDS011;42261;52.094;4.326;2024-03-25T06:23:25;18.55;;;16.75;;
56363;SDS011;42261;52.094;4.326;2024-03-25T06:26:09;17.55;;;16.38;;
56363;SDS011;42261;52.094;4.326;2024-03-25T06:28:53;18.65;;;17.02;;
56363;SDS011;42261;52.094;4.326;2024-03-25T06:31:37;18.35;;;16.88;;
56363;SDS011;42261;52.094;4.326;2024-03-25T06:34:41;19.10;;;17.42;;
56363;SDS011;42261;52.094;4.326;2024-03-25T06:37:27;18.67;;;17.25;;
56363;SDS011;42261;52.094;4.326;2024-03-25T06:40:12;18.30;;;16.95;;
56363;SDS011;42261;52.094;4.326;2024-03-25T06:42:56;18.08;;;16.27;;
56363;SDS011;42261;52.094;4.326;2024-03-25T06:45:41;18.60;;;17.02;;
56363;SDS011;42261;52.094;4.326;2024-03-25T06:48:26;19.60;;;17.75;;
56363;SDS011;42261;52.094;4.326;2024-03-25T06:51:10;18.60;;;17.35;;
56363;SDS011;42261;52.094;4.326;2024-03-25T06:53:54;19.48;;;18.00;;
56363;SDS011;42261;52.094;4.326;2024-03-25T06:56:39;19.15;;;17.35;;
56363;SDS011;42261;52.094;4.326;2024-03-25T06:59:23;20.05;;;18.25;;
56363;SDS011;42261;52.094;4.326;2024-03-25T07:02:07;19.05;;;17.02;;
56363;SDS011;42261;52.094;4.326;2024-03-25T07:04:54;20.00;;;18.13;;
56363;SDS011;42261;52.094;4.326;2024-03-25T07:07:38;18.98;;;17.45;;
56363;SDS011;42261;52.094;4.326;2024-03-25T07:10:23;18.30;;;16.95;;
56363;SDS011;42261;52.094;4.326;2024-03-25T07:13:08;19.38;;;17.63;;
56363;SDS011;42261;52.094;4.326;2024-03-25T07:15:52;19.20;;;17.65;;
56363;SDS011;42261;52.094;4.326;2024-03-25T07:18:45;19.58;;;17.90;;
56363;SDS011;42261;52.094;4.326;2024-03-25T07:21:30;19.65;;;18.30;;
56363;SDS011;42261;52.094;4.326;2024-03-25T07:24:15;21.20;;;18.40;;
56363;SDS011;42261;52.094;4.326;2024-03-25T07:26:59;20.75;;;18.67;;
56363;SDS011;42261;52.094;4.326;2024-03-25T07:29:43;20.92;;;19.00;;
56363;SDS011;42261;52.094;4.326;2024-03-25T07:32:30;20.83;;;18.95;;
56363;SDS011;42261;52.094;4.326;2024-03-25T07:35:14;21.20;;;19.23;;
56363;SDS011;42261;52.094;4.326;2024-03-25T07:38:00;20.80;;;18.92;;
56363;SDS011;42261;52.094;4.326;2024-03-25T07:40:44;21.20;;;18.95;;
56363;SDS011;42261;52.094;4.326;2024-03-25T07:43:28;20.75;;;19.00;;
56363;SDS011;42261;52.094;4.326;2024-03-25T07:46:22;21.92;;;20.08;;
56363;SDS011;42261;52.094;4.326;2024-03-25T07:49:06;22.17;;;19.48;;
56363;SDS011;42261;52.094;4.326;2024-03-25T07:51:50;20.88;;;18.52;;
56363;SDS011;42261;52.094;4.326;2024-03-25T07:54:34;22.60;;;19.73;;
56363;SDS011;42261;52.094;4.326;2024-03-25T07:57:20;20.80;;;18.77;;
56363;SDS011;42261;52.094;4.326;2024-03-25T08:00:04;21.20;;;19.17;;
56363;SDS011;42261;52.094;4.326;2024-03-25T08:02:49;30.83;;;20.38;;
56363;SDS011;42261;52.094;4.326;2024-03-25T08:05:33;21.92;;;19.70;;
56363;SDS011;42261;52.094;4.326;2024-03-25T08:08:17;19.38;;;17.80;;
56363;SDS011;42261;52.094;4.326;2024-03-25T08:11:01;20.35;;;18.75;;
56363;SDS011;42261;52.094;4.326;2024-03-25T08:13:45;21.15;;;19.55;;
56363;SDS011;42261;52.094;4.326;2024-03-25T08:16:30;18.88;;;17.70;;
56363;SDS011;42261;52.094;4.326;2024-03-25T08:19:14;20.55;;;18.52;;
56363;SDS011;42261;52.094;4.326;2024-03-25T08:21:58;18.60;;;17.38;;
56363;SDS011;42261;52.094;4.326;2024-03-25T08:24:42;18.75;;;17.15;;
56363;SDS011;42261;52.094;4.326;2024-03-25T08:27:26;19.52;;;18.20;;
56363;SDS011;42261;52.094;4.326;2024-03-25T08:30:10;19.85;;;17.92;;
56363;SDS011;42261;52.094;4.326;2024-03-25T08:32:55;19.27;;;17.15;;
56363;SDS011;42261;52.094;4.326;2024-03-25T08:35:39;16.73;;;15.45;;
56363;SDS011;42261;52.094;4.326;2024-03-25T08:38:23;16.67;;;15.18;;
56363;SDS011;42261;52.094;4.326;2024-03-25T08:41:06;20.38;;;18.38;;
56363;SDS011;42261;52.094;4.326;2024-03-25T08:43:51;17.73;;;15.55;;
56363;SDS011;42261;52.094;4.326;2024-03-25T08:46:35;16.33;;;15.18;;
56363;SDS011;42261;52.094;4.326;2024-03-25T08:49:19;15.10;;;14.00;;
56363;SDS011;42261;52.094;4.326;2024-03-25T08:52:04;16.80;;;15.80;;
56363;SDS011;42261;52.094;4.326;2024-03-25T08:54:48;17.77;;;16.58;;
56363;SDS011;42261;52.094;4.326;2024-03-25T08:57:32;17.25;;;15.85;;
56363;SDS011;42261;52.094;4.326;2024-03-25T09:00:16;17.17;;;15.55;;
56363;SDS011;42261;52.094;4.326;2024-03-25T09:03:02;17.60;;;16.05;;
56363;SDS011;42261;52.094;4.326;2024-03-25T09:05:48;17.02;;;15.45;;
56363;SDS011;42261;52.094;4.326;2024-03-25T09:08:33;17.08;;;15.57;;
56363;SDS011;42261;52.094;4.326;2024-03-25T09:11:37;17.10;;;15.80;;
56363;SDS011;42261;52.094;4.326;2024-03-25T09:14:21;17.98;;;16.58;;
56363;SDS011;42261;52.094;4.326;2024-03-25T09:17:05;16.25;;;14.82;;
56363;SDS011;42261;52.094;4.326;2024-03-25T09:19:49;17.38;;;15.38;;
56363;SDS011;42261;52.094;4.326;2024-03-25T09:22:33;17.85;;;16.15;;
56363;SDS011;42261;52.094;4.326;2024-03-25T09:25:17;17.27;;;15.52;;
56363;SDS011;42261;52.094;4.326;2024-03-25T09:28:02;15.18;;;14.00;;
56363;SDS011;42261;52.094;4.326;2024-03-25T09:30:47;16.45;;;15.18;;
56363;SDS011;42261;52.094;4.326;2024-03-25T09:33:31;18.30;;;16.40;;
56363;SDS011;42261;52.094;4.326;2024-03-25T09:36:15;18.50;;;16.92;;
56363;SDS011;42261;52.094;4.326;2024-03-25T09:38:59;20.40;;;18.60;;
56363;SDS011;42261;52.094;4.326;2024-03-25T09:41:43;19.40;;;16.92;;
56363;SDS011;42261;52.094;4.326;2024-03-25T09:44:28;16.98;;;15.15;;
56363;SDS011;42261;52.094;4.326;2024-03-25T09:47:13;18.70;;;16.98;;
56363;SDS011;42261;52.094;4.326;2024-03-25T09:49:57;17.45;;;15.88;;
56363;SDS011;42261;52.094;4.326;2024-03-25T09:52:43;17.13;;;15.60;;
56363;SDS011;42261;52.094;4.326;2024-03-25T09:55:27;20.67;;;18.48;;
56363;SDS011;42261;52.094;4.326;2024-03-25T09:58:11;21.38;;;19.42;;
56363;SDS011;42261;52.094;4.326;2024-03-25T10:00:56;20.88;;;18.65;;
56363;SDS011;42261;52.094;4.326;2024-03-25T10:03:42;19.35;;;17.63;;
56363;SDS011;42261;52.094;4.326;2024-03-25T10:06:26;17.92;;;16.35;;
56363;SDS011;42261;52.094;4.326;2024-03-25T10:09:10;19.25;;;17.63;;
56363;SDS011;42261;52.094;4.326;2024-03-25T10:11:54;17.55;;;15.95;;
56363;SDS011;42261;52.094;4.326;2024-03-25T10:14:42;18.10;;;16.65;;
56363;SDS011;42261;52.094;4.326;2024-03-25T10:17:26;18.85;;;17.25;;
56363;SDS011;42261;52.094;4.326;2024-03-25T10:20:13;17.63;;;15.95;;
56363;SDS011;42261;52.094;4.326;2024-03-25T10:22:57;17.10;;;15.60;;
56363;SDS011;42261;52.094;4.326;2024-03-25T10:25:41;17.67;;;15.82;;
56363;SDS011;42261;52.094;4.326;2024-03-25T10:28:26;18.58;;;15.18;;
56363;SDS011;42261;52.094;4.326;2024-03-25T10:31:10;20.60;;;15.65;;
56363;SDS011;42261;52.094;4.326;2024-03-25T10:33:54;17.88;;;15.38;;
56363;SDS011;42261;52.094;4.326;2024-03-25T10:36:38;17.58;;;15.88;;
56363;SDS011;42261;52.094;4.326;2024-03-25T10:39:26;14.63;;;12.63;;
56363;SDS011;42261;52.094;4.326;2024-03-25T10:42:11;18.52;;;13.52;;
56363;SDS011;42261;52.094;4.326;2024-03-25T10:44:57;14.00;;;12.07;;
56363;SDS011;42261;52.094;4.326;2024-03-25T10:47:41;13.35;;;11.98;;
56363;SDS011;42261;52.094;4.326;2024-03-25T10:50:27;12.05;;;10.85;;
56363;SDS011;42261;52.094;4.326;2024-03-25T10:53:12;12.32;;;10.15;;
56363;SDS011;42261;52.094;4.326;2024-03-25T10:55:59;10.23;;;9.23;;
56363;SDS011;42261;52.094;4.326;2024-03-25T10:58:45;10.20;;;7.28;;
56363;SDS011;42261;52.094;4.326;2024-03-25T11:01:31;10.23;;;6.35;;
56363;SDS011;42261;52.094;4.326;2024-03-25T11:04:15;7.65;;;5.82;;
56363;SDS011;42261;52.094;4.326;2024-03-25T11:07:10;8.38;;;5.93;;
56363;SDS011;42261;52.094;4.326;2024-03-25T11:10:03;10.60;;;6.82;;
56363;SDS011;42261;52.094;4.326;2024-03-25T11:12:49;8.93;;;5.95;;
56363;SDS011;42261;52.094;4.326;2024-03-25T11:15:37;9.63;;;6.35;;
56363;SDS011;42261;52.094;4.326;2024-03-25T11:18:24;9.88;;;6.50;;
56363;SDS011;42261;52.094;4.326;2024-03-25T11:21:09;6.75;;;6.05;;
56363;SDS011;42261;52.094;4.326;2024-03-25T11:24:05;5.15;;;4.70;;
56363;SDS011;42261;52.094;4.326;2024-03-25T11:26:51;8.45;;;5.13;;
56363;SDS011;42261;52.094;4.326;2024-03-25T11:29:35;4.97;;;4.47;;
56363;SDS011;42261;52.094;4.326;2024-03-25T11:32:22;5.55;;;4.40;;
56363;SDS011;42261;52.094;4.326;2024-03-25T11:35:06;5.55;;;3.88;;
56363;SDS011;42261;52.094;4.326;2024-03-25T11:37:51;5.30;;;4.55;;
56363;SDS011;42261;52.094;4.326;2024-03-25T11:40:37;6.95;;;4.43;;
56363;SDS011;42261;52.094;4.326;2024-03-25T11:43:22;5.30;;;4.05;;
56363;SDS011;42261;52.094;4.326;2024-03-25T11:46:05;8.05;;;5.13;;
56363;SDS011;42261;52.094;4.326;2024-03-25T11:48:50;9.30;;;4.30;;
56363;SDS011;42261;52.094;4.326;2024-03-25T11:51:34;8.93;;;4.88;;
56363;SDS011;42261;52.094;4.326;2024-03-25T11:54:19;6.47;;;3.92;;
56363;SDS011;42261;52.094;4.326;2024-03-25T11:57:02;6.75;;;4.35;;
56363;SDS011;42261;52.094;4.326;2024-03-25T11:59:47;6.13;;;3.95;;
56363;SDS011;42261;52.094;4.326;2024-03-25T12:02:32;5.75;;;4.78;;
56363;SDS011;42261;52.094;4.326;2024-03-25T12:05:16;5.78;;;4.43;;
56363;SDS011;42261;52.094;4.326;2024-03-25T12:08:01;6.80;;;4.55;;
56363;SDS011;42261;52.094;4.326;2024-03-25T12:10:46;6.95;;;5.00;;
56363;SDS011;42261;52.094;4.326;2024-03-25T12:13:49;11.45;;;4.65;;
56363;SDS011;42261;52.094;4.326;2024-03-25T12:16:33;8.10;;;4.30;;
56363;SDS011;42261;52.094;4.326;2024-03-25T12:19:18;5.18;;;4.70;;
56363;SDS011;42261;52.094;4.326;2024-03-25T12:22:04;7.50;;;5.45;;
56363;SDS011;42261;52.094;4.326;2024-03-25T12:24:48;8.90;;;5.40;;
56363;SDS011;42261;52.094;4.326;2024-03-25T12:27:36;9.43;;;5.10;;
56363;SDS011;42261;52.094;4.326;2024-03-25T12:30:22;8.68;;;5.93;;
56363;SDS011;42261;52.094;4.326;2024-03-25T12:33:06;8.65;;;5.00;;
56363;SDS011;42261;52.094;4.326;2024-03-25T12:35:51;9.90;;;5.85;;
56363;SDS011;42261;52.094;4.326;2024-03-25T12:38:35;10.02;;;6.35;;
56363;SDS011;42261;52.094;4.326;2024-03-25T12:41:21;9.75;;;5.55;;
56363;SDS011;42261;52.094;4.326;2024-03-25T12:44:05;8.70;;;5.70;;
56363;SDS011;42261;52.094;4.326;2024-03-25T12:46:50;7.78;;;5.93;;
56363;SDS011;42261;52.094;4.326;2024-03-25T12:49:34;13.00;;;6.15;;
56363;SDS011;42261;52.094;4.326;2024-03-25T12:52:18;7.38;;;6.05;;
56363;SDS011;42261;52.094;4.326;2024-03-25T12:55:02;10.82;;;5.35;;
56363;SDS011;42261;52.094;4.326;2024-03-25T12:57:47;8.20;;;5.30;;
56363;SDS011;42261;52.094;4.326;2024-03-25T13:00:31;8.05;;;5.35;;
56363;SDS011;42261;52.094;4.326;2024-03-25T13:03:15;11.02;;;5.57;;
56363;SDS011;42261;52.094;4.326;2024-03-25T13:05:59;9.30;;;5.18;;
56363;SDS011;42261;52.094;4.326;2024-03-25T13:08:45;6.72;;;5.15;;
56363;SDS011;42261;52.094;4.326;2024-03-25T13:11:29;6.75;;;5.53;;
56363;SDS011;42261;52.094;4.326;2024-03-25T13:14:13;7.40;;;6.03;;
56363;SDS011;42261;52.094;4.326;2024-03-25T13:16:57;10.40;;;6.60;;
56363;SDS011;42261;52.094;4.326;2024-03-25T13:19:41;6.43;;;5.25;;
56363;SDS011;42261;52.094;4.326;2024-03-25T13:22:25;7.30;;;5.90;;
56363;SDS011;42261;52.094;4.326;2024-03-25T13:25:10;8.15;;;5.90;;
56363;SDS011;42261;52.094;4.326;2024-03-25T13:27:54;9.82;;;6.50;;
56363;SDS011;42261;52.094;4.326;2024-03-25T13:30:39;7.65;;;5.65;;
56363;SDS011;42261;52.094;4.326;2024-03-25T13:33:25;7.90;;;5.20;;
56363;SDS011;42261;52.094;4.326;2024-03-25T13:36:10;9.23;;;5.82;;
56363;SDS011;42261;52.094;4.326;2024-03-25T13:38:54;7.15;;;5.45;;
56363;SDS011;42261;52.094;4.326;2024-03-25T13:41:38;8.00;;;5.32;;
56363;SDS011;42261;52.094;4.326;2024-03-25T13:44:22;5.90;;;4.63;;
56363;SDS011;42261;52.094;4.326;2024-03-25T13:47:06;6.43;;;4.20;;
56363;SDS011;42261;52.094;4.326;2024-03-25T13:50:01;7.20;;;5.35;;
56363;SDS011;42261;52.094;4.326;2024-03-25T13:52:45;6.32;;;5.28;;
56363;SDS011;42261;52.094;4.326;2024-03-25T13:55:29;7.40;;;4.90;;
56363;SDS011;42261;52.094;4.326;2024-03-25T13:58:14;6.97;;;4.13;;
56363;SDS011;42261;52.094;4.326;2024-03-25T14:00:58;6.25;;;4.38;;
56363;SDS011;42261;52.094;4.326;2024-03-25T14:03:42;5.72;;;3.97;;
56363;SDS011;42261;52.094;4.326;2024-03-25T14:06:27;5.25;;;4.07;;
56363;SDS011;42261;52.094;4.326;2024-03-25T14:09:24;4.80;;;3.80;;
56363;SDS011;42261;52.094;4.326;2024-03-25T14:12:09;6.53;;;4.68;;
56363;SDS011;42261;52.094;4.326;2024-03-25T14:14:53;8.55;;;3.88;;
56363;SDS011;42261;52.094;4.326;2024-03-25T14:17:37;4.65;;;4.05;;
56363;SDS011;42261;52.094;4.326;2024-03-25T14:20:21;4.32;;;3.95;;
56363;SDS011;42261;52.094;4.326;2024-03-25T14:23:05;4.70;;;4.13;;
56363;SDS011;42261;52.094;4.326;2024-03-25T14:25:50;7.40;;;4.80;;
56363;SDS011;42261;52.094;4.326;2024-03-25T14:28:35;8.98;;;4.72;;
56363;SDS011;42261;52.094;4.326;2024-03-25T14:31:19;6.15;;;4.43;;
56363;SDS011;42261;52.094;4.326;2024-03-25T14:34:03;7.07;;;4.40;;
56363;SDS011;42261;52.094;4.326;2024-03-25T14:36:48;6.30;;;4.22;;
56363;SDS011;42261;52.094;4.326;2024-03-25T14:39:34;5.35;;;4.25;;
56363;SDS011;42261;52.094;4.326;2024-03-25T14:42:18;4.57;;;4.15;;
56363;SDS011;42261;52.094;4.326;2024-03-25T14:45:03;5.63;;;5.13;;
56363;SDS011;42261;52.094;4.326;2024-03-25T14:47:49;7.13;;;5.22;;
56363;SDS011;42261;52.094;4.326;2024-03-25T14:50:33;6.60;;;4.50;;
56363;SDS011;42261;52.094;4.326;2024-03-25T14:53:17;9.27;;;4.80;;
56363;SDS011;42261;52.094;4.326;2024-03-25T14:56:02;4.47;;;4.03;;
56363;SDS011;42261;52.094;4.326;2024-03-25T14:58:47;6.65;;;4.50;;
56363;SDS011;42261;52.094;4.326;2024-03-25T15:01:31;7.38;;;5.18;;
56363;SDS011;42261;52.094;4.326;2024-03-25T15:04:19;5.68;;;4.40;;
56363;SDS011;42261;52.094;4.326;2024-03-25T15:07:03;4.57;;;4.15;;
56363;SDS011;42261;52.094;4.326;2024-03-25T15:09:47;7.32;;;3.95;;
56363;SDS011;42261;52.094;4.326;2024-03-25T15:12:31;6.00;;;4.30;;
56363;SDS011;42261;52.094;4.326;2024-03-25T15:15:15;5.55;;;4.30;;
56363;SDS011;42261;52.094;4.326;2024-03-25T15:17:59;4.82;;;4.43;;
56363;SDS011;42261;52.094;4.326;2024-03-25T15:20:44;4.82;;;4.22;;
56363;SDS011;42261;52.094;4.326;2024-03-25T15:23:28;5.28;;;4.43;;
56363;SDS011;42261;52.094;4.326;2024-03-25T15:26:13;5.68;;;4.00;;
56363;SDS011;42261;52.094;4.326;2024-03-25T15:28:57;6.95;;;4.10;;
56363;SDS011;42261;52.094;4.326;2024-03-25T15:31:41;11.20;;;4.55;;
56363;SDS011;42261;52.094;4.326;2024-03-25T15:34:25;4.78;;;4.30;;
56363;SDS011;42261;52.094;4.326;2024-03-25T15:37:09;5.13;;;3.97;;
56363;SDS011;42261;52.094;4.326;2024-03-25T15:39:56;4.43;;;3.60;;
56363;SDS011;42261;52.094;4.326;2024-03-25T15:42:40;4.55;;;3.63;;
56363;SDS011;42261;52.094;4.326;2024-03-25T15:45:24;5.65;;;3.90;;
56363;SDS011;42261;52.094;4.326;2024-03-25T15:48:08;5.47;;;3.67;;
56363;SDS011;42261;52.094;4.326;2024-03-25T15:50:53;8.27;;;4.10;;
56363;SDS011;42261;52.094;4.326;2024-03-25T15:53:38;5.53;;;3.67;;
56363;SDS011;42261;52.094;4.326;2024-03-25T15:56:22;6.20;;;3.60;;
56363;SDS011;42261;52.094;4.326;2024-03-25T15:59:06;2.97;;;2.78;;
56363;SDS011;42261;52.094;4.326;2024-03-25T16:01:50;8.40;;;3.45;;
56363;SDS011;42261;52.094;4.326;2024-03-25T16:04:34;7.68;;;4.00;;
56363;SDS011;42261;52.094;4.326;2024-03-25T16:07:19;6.30;;;3.90;;
56363;SDS011;42261;52.094;4.326;2024-03-25T16:10:03;7.55;;;3.30;;
56363;SDS011;42261;52.094;4.326;2024-03-25T16:12:47;3.92;;;2.95;;
56363;SDS011;42261;52.094;4.326;2024-03-25T16:15:34;6.18;;;3.85;;